sensor_id;sensor_type;location;lat;lon;timestamp;P1;durP1;ratioP1;P2;durP2;ratioP2
2680;SDS011;1350;42.134;24.708;2024-01-15T00:01:49;83.10;;;41.90;;
2680;SDS011;1350;42.134;24.708;2024-01-15T00:04:16;70.97;;;43.10;;
2680;SDS011;1350;42.134;24.708;2024-01-15T00:06:43;68.03;;;41.92;;
2680;SDS011;1350;42.134;24.708;2024-01-15T00:09:10;69.90;;;46.00;;
2680;SDS011;1350;42.134;24.708;2024-01-15T00:11:37;68.88;;;47.38;;
2680;SDS011;1350;42.134;24.708;2024-01-15T00:14:05;77.15;;;46.72;;
2680;SDS011;1350;42.134;24.708;2024-01-15T00:16:32;72.65;;;47.00;;
2680;SDS011;1350;42.134;24.708;2024-01-15T00:18:59;78.97;;;46.55;;
2680;SDS011;1350;42.134;24.708;2024-01-15T00:21:26;70.60;;;43.65;;
2680;SDS011;1350;42.134;24.708;2024-01-15T00:23:53;79.63;;;44.97;;
2680;SDS011;1350;42.134;24.708;2024-01-15T00:26:20;70.40;;;46.55;;
2680;SDS011;1350;42.134;24.708;2024-01-15T00:28:47;78.85;;;44.85;;
2680;SDS011;1350;42.134;24.708;2024-01-15T00:31:17;84.45;;;46.78;;
2680;SDS011;1350;42.134;24.708;2024-01-15T00:33:44;69.63;;;44.05;;
2680;SDS011;1350;42.134;24.708;2024-01-15T00:36:10;72.30;;;42.60;;
2680;SDS011;1350;42.134;24.708;2024-01-15T00:38:38;79.70;;;42.42;;
2680;SDS011;1350;42.134;24.708;2024-01-15T00:41:05;69.60;;;39.22;;
2680;SDS011;1350;42.134;24.708;2024-01-15T00:43:32;63.58;;;39.17;;
2680;SDS011;1350;42.134;24.708;2024-01-15T00:46:01;58.08;;;39.58;;
2680;SDS011;1350;42.134;24.708;2024-01-15T00:48:29;72.40;;;45.00;;
2680;SDS011;1350;42.134;24.708;2024-01-15T00:50:56;64.35;;;43.28;;
2680;SDS011;1350;42.134;24.708;2024-01-15T00:53:23;68.15;;;40.85;;
2680;SDS011;1350;42.134;24.708;2024-01-15T00:55:51;60.05;;;40.30;;
2680;SDS011;1350;42.134;24.708;2024-01-15T00:58:18;61.83;;;36.15;;
2680;SDS011;1350;42.134;24.708;2024-01-15T01:00:45;55.47;;;34.25;;
2680;SDS011;1350;42.134;24.708;2024-01-15T01:03:12;59.63;;;34.38;;
2680;SDS011;1350;42.134;24.708;2024-01-15T01:05:41;70.55;;;41.60;;
2680;SDS011;1350;42.134;24.708;2024-01-15T01:08:08;66.13;;;38.58;;
2680;SDS011;1350;42.134;24.708;2024-01-15T01:10:35;77.32;;;38.03;;
2680;SDS011;1350;42.134;24.708;2024-01-15T01:13:02;66.60;;;39.08;;
2680;SDS011;1350;42.134;24.708;2024-01-15T01:15:29;56.33;;;37.67;;
2680;SDS011;1350;42.134;24.708;2024-01-15T01:17:56;63.40;;;39.65;;
2680;SDS011;1350;42.134;24.708;2024-01-15T01:20:23;71.50;;;39.15;;
2680;SDS011;1350;42.134;24.708;2024-01-15T01:22:51;60.25;;;37.05;;
2680;SDS011;1350;42.134;24.708;2024-01-15T01:25:18;63.13;;;39.10;;
2680;SDS011;1350;42.134;24.708;2024-01-15T01:27:45;68.13;;;44.55;;
2680;SDS011;1350;42.134;24.708;2024-01-15T01:30:12;69.70;;;44.42;;
2680;SDS011;1350;42.134;24.708;2024-01-15T01:32:39;62.80;;;41.25;;
2680;SDS011;1350;42.134;24.708;2024-01-15T01:35:06;71.63;;;41.58;;
2680;SDS011;1350;42.134;24.708;2024-01-15T01:37:33;71.47;;;43.40;;
2680;SDS011;1350;42.134;24.708;2024-01-15T01:40:02;63.00;;;38.50;;
2680;SDS011;1350;42.134;24.708;2024-01-15T01:42:29;65.55;;;39.13;;
2680;SDS011;1350;42.134;24.708;2024-01-15T01:44:56;75.90;;;42.13;;
2680;SDS011;1350;42.134;24.708;2024-01-15T01:47:23;66.00;;;38.17;;
2680;SDS011;1350;42.134;24.708;2024-01-15T01:49:51;62.88;;;39.70;;
2680;SDS011;1350;42.134;24.708;2024-01-15T01:52:18;65.45;;;40.40;;
2680;SDS011;1350;42.134;24.708;2024-01-15T01:54:45;62.38;;;36.72;;
2680;SDS011;1350;42.134;24.708;2024-01-15T01:57:14;56.88;;;35.42;;
2680;SDS011;1350;42.134;24.708;2024-01-15T01:59:43;62.17;;;38.85;;
2680;SDS011;1350;42.134;24.708;2024-01-15T02:02:10;53.00;;;36.25;;
2680;SDS011;1350;42.134;24.708;2024-01-15T02:04:38;61.00;;;36.88;;
2680;SDS011;1350;42.134;24.708;2024-01-15T02:07:06;55.65;;;32.38;;
2680;SDS011;1350;42.134;24.708;2024-01-15T02:09:34;55.35;;;33.38;;
2680;SDS011;1350;42.134;24.708;2024-01-15T02:12:01;65.05;;;33.55;;
2680;SDS011;1350;42.134;24.708;2024-01-15T02:14:30;65.18;;;33.65;;
2680;SDS011;1350;42.134;24.708;2024-01-15T02:16:57;58.20;;;32.85;;
2680;SDS011;1350;42.134;24.708;2024-01-15T02:19:24;51.88;;;33.38;;
2680;SDS011;1350;42.134;24.708;2024-01-15T02:21:51;52.72;;;33.65;;
2680;SDS011;1350;42.134;24.708;2024-01-15T02:24:19;62.53;;;32.42;;
2680;SDS011;1350;42.134;24.708;2024-01-15T02:26:47;53.60;;;30.70;;
2680;SDS011;1350;42.134;24.708;2024-01-15T02:29:14;50.13;;;29.30;;
2680;SDS011;1350;42.134;24.708;2024-01-15T02:31:41;54.53;;;31.83;;
2680;SDS011;1350;42.134;24.708;2024-01-15T02:34:08;54.38;;;32.90;;
2680;SDS011;1350;42.134;24.708;2024-01-15T02:36:35;51.03;;;32.38;;
2680;SDS011;1350;42.134;24.708;2024-01-15T02:39:02;61.45;;;33.70;;
2680;SDS011;1350;42.134;24.708;2024-01-15T02:41:31;56.17;;;34.38;;
2680;SDS011;1350;42.134;24.708;2024-01-15T02:43:57;55.88;;;33.35;;
2680;SDS011;1350;42.134;24.708;2024-01-15T02:46:24;52.88;;;33.15;;
2680;SDS011;1350;42.134;24.708;2024-01-15T02:48:51;57.35;;;36.63;;
2680;SDS011;1350;42.134;24.708;2024-01-15T02:51:18;51.15;;;30.55;;
2680;SDS011;1350;42.134;24.708;2024-01-15T02:53:46;52.70;;;30.92;;
2680;SDS011;1350;42.134;24.708;2024-01-15T02:56:13;57.67;;;34.08;;
2680;SDS011;1350;42.134;24.708;2024-01-15T02:58:41;61.00;;;37.53;;
2680;SDS011;1350;42.134;24.708;2024-01-15T03:01:08;56.45;;;35.05;;
2680;SDS011;1350;42.134;24.708;2024-01-15T03:03:35;62.20;;;34.90;;
2680;SDS011;1350;42.134;24.708;2024-01-15T03:06:02;53.75;;;31.23;;
2680;SDS011;1350;42.134;24.708;2024-01-15T03:08:29;62.17;;;36.72;;
2680;SDS011;1350;42.134;24.708;2024-01-15T03:10:56;52.70;;;34.30;;
2680;SDS011;1350;42.134;24.708;2024-01-15T03:13:24;54.42;;;32.63;;
2680;SDS011;1350;42.134;24.708;2024-01-15T03:15:52;52.45;;;33.20;;
2680;SDS011;1350;42.134;24.708;2024-01-15T03:18:19;52.85;;;30.27;;
2680;SDS011;1350;42.134;24.708;2024-01-15T03:20:46;51.60;;;32.03;;
2680;SDS011;1350;42.134;24.708;2024-01-15T03:23:13;53.33;;;31.38;;
2680;SDS011;1350;42.134;24.708;2024-01-15T03:25:40;50.83;;;29.40;;
2680;SDS011;1350;42.134;24.708;2024-01-15T03:28:07;52.17;;;29.55;;
2680;SDS011;1350;42.134;24.708;2024-01-15T03:30:34;47.10;;;29.88;;
2680;SDS011;1350;42.134;24.708;2024-01-15T03:33:02;47.17;;;28.45;;
2680;SDS011;1350;42.134;24.708;2024-01-15T03:35:29;49.72;;;29.45;;
2680;SDS011;1350;42.134;24.708;2024-01-15T03:37:56;51.67;;;28.48;;
2680;SDS011;1350;42.134;24.708;2024-01-15T03:40:23;46.88;;;29.63;;
2680;SDS011;1350;42.134;24.708;2024-01-15T03:42:50;57.58;;;28.60;;
2680;SDS011;1350;42.134;24.708;2024-01-15T03:45:17;52.05;;;31.20;;
2680;SDS011;1350;42.134;24.708;2024-01-15T03:47:44;49.90;;;30.92;;
2680;SDS011;1350;42.134;24.708;2024-01-15T03:50:13;61.05;;;32.15;;
2680;SDS011;1350;42.134;24.708;2024-01-15T03:52:40;58.40;;;32.17;;
2680;SDS011;1350;42.134;24.708;2024-01-15T03:55:07;49.00;;;30.10;;
2680;SDS011;1350;42.134;24.708;2024-01-15T03:57:34;50.15;;;30.70;;
2680;SDS011;1350;42.134;24.708;2024-01-15T04:00:02;58.13;;;30.60;;
2680;SDS011;1350;42.134;24.708;2024-01-15T04:02:29;51.42;;;31.98;;
2680;SDS011;1350;42.134;24.708;2024-01-15T04:04:56;54.33;;;32.60;;
2680;SDS011;1350;42.134;24.708;2024-01-15T04:07:25;58.42;;;34.75;;
2680;SDS011;1350;42.134;24.708;2024-01-15T04:09:52;55.78;;;33.17;;
2680;SDS011;1350;42.134;24.708;2024-01-15T04:12:19;50.63;;;35.13;;
2680;SDS011;1350;42.134;24.708;2024-01-15T04:14:45;51.50;;;35.28;;
2680;SDS011;1350;42.134;24.708;2024-01-15T04:17:12;58.20;;;33.35;;
2680;SDS011;1350;42.134;24.708;2024-01-15T04:19:39;55.85;;;34.40;;
2680;SDS011;1350;42.134;24.708;2024-01-15T04:22:09;63.03;;;36.88;;
2680;SDS011;1350;42.134;24.708;2024-01-15T04:24:37;59.80;;;35.35;;
2680;SDS011;1350;42.134;24.708;2024-01-15T04:27:04;75.95;;;37.88;;
2680;SDS011;1350;42.134;24.708;2024-01-15T04:29:31;108.32;;;59.65;;
2680;SDS011;1350;42.134;24.708;2024-01-15T04:31:58;67.72;;;39.20;;
2680;SDS011;1350;42.134;24.708;2024-01-15T04:34:25;60.58;;;36.33;;
2680;SDS011;1350;42.134;24.708;2024-01-15T04:36:52;71.43;;;41.03;;
2680;SDS011;1350;42.134;24.708;2024-01-15T04:39:19;60.40;;;35.53;;
2680;SDS011;1350;42.134;24.708;2024-01-15T04:41:48;60.35;;;33.20;;
2680;SDS011;1350;42.134;24.708;2024-01-15T04:44:15;55.65;;;36.25;;
2680;SDS011;1350;42.134;24.708;2024-01-15T04:46:42;62.45;;;33.90;;
2680;SDS011;1350;42.134;24.708;2024-01-15T04:49:10;54.22;;;31.48;;
2680;SDS011;1350;42.134;24.708;2024-01-15T04:51:37;55.72;;;33.60;;
2680;SDS011;1350;42.134;24.708;2024-01-15T04:54:04;65.60;;;33.60;;
2680;SDS011;1350;42.134;24.708;2024-01-15T04:56:31;46.45;;;29.63;;
2680;SDS011;1350;42.134;24.708;2024-01-15T04:58:59;59.97;;;32.17;;
2680;SDS011;1350;42.134;24.708;2024-01-15T05:01:29;46.38;;;28.45;;
2680;SDS011;1350;42.134;24.708;2024-01-15T05:03:57;55.60;;;30.17;;
2680;SDS011;1350;42.134;24.708;2024-01-15T05:06:24;43.55;;;25.80;;
2680;SDS011;1350;42.134;24.708;2024-01-15T05:08:51;40.00;;;27.20;;
2680;SDS011;1350;42.134;24.708;2024-01-15T05:11:18;42.53;;;22.52;;
2680;SDS011;1350;42.134;24.708;2024-01-15T05:13:45;41.45;;;24.40;;
2680;SDS011;1350;42.134;24.708;2024-01-15T05:16:14;40.08;;;24.02;;
2680;SDS011;1350;42.134;24.708;2024-01-15T05:18:41;44.70;;;22.98;;
2680;SDS011;1350;42.134;24.708;2024-01-15T05:21:08;48.17;;;25.17;;
2680;SDS011;1350;42.134;24.708;2024-01-15T05:23:35;65.55;;;27.70;;
2680;SDS011;1350;42.134;24.708;2024-01-15T05:26:02;50.50;;;27.13;;
2680;SDS011;1350;42.134;24.708;2024-01-15T05:28:29;44.78;;;26.05;;
2680;SDS011;1350;42.134;24.708;2024-01-15T05:30:56;40.70;;;27.15;;
2680;SDS011;1350;42.134;24.708;2024-01-15T05:33:25;43.40;;;24.88;;
2680;SDS011;1350;42.134;24.708;2024-01-15T05:35:52;39.78;;;25.10;;
2680;SDS011;1350;42.134;24.708;2024-01-15T05:38:20;39.20;;;23.80;;
2680;SDS011;1350;42.134;24.708;2024-01-15T05:40:47;50.63;;;23.67;;
2680;SDS011;1350;42.134;24.708;2024-01-15T05:43:13;49.92;;;24.40;;
2680;SDS011;1350;42.134;24.708;2024-01-15T05:45:42;41.80;;;23.40;;
2680;SDS011;1350;42.134;24.708;2024-01-15T05:48:09;43.45;;;25.40;;
2680;SDS011;1350;42.134;24.708;2024-01-15T05:50:39;37.53;;;24.63;;
2680;SDS011;1350;42.134;24.708;2024-01-15T05:53:06;43.65;;;24.98;;
2680;SDS011;1350;42.134;24.708;2024-01-15T05:55:33;46.10;;;25.70;;
2680;SDS011;1350;42.134;24.708;2024-01-15T05:58:01;47.45;;;24.77;;
2680;SDS011;1350;42.134;24.708;2024-01-15T06:00:28;31.95;;;21.42;;
2680;SDS011;1350;42.134;24.708;2024-01-15T06:02:55;44.13;;;25.10;;
2680;SDS011;1350;42.134;24.708;2024-01-15T06:05:22;39.17;;;23.95;;
2680;SDS011;1350;42.134;24.708;2024-01-15T06:07:50;45.28;;;24.23;;
2680;SDS011;1350;42.134;24.708;2024-01-15T06:10:17;51.88;;;26.77;;
2680;SDS011;1350;42.134;24.708;2024-01-15T06:12:44;46.35;;;25.27;;
2680;SDS011;1350;42.134;24.708;2024-01-15T06:15:11;48.10;;;27.48;;
2680;SDS011;1350;42.134;24.708;2024-01-15T06:17:38;45.95;;;25.13;;
2680;SDS011;1350;42.134;24.708;2024-01-15T06:20:06;41.50;;;25.40;;
2680;SDS011;1350;42.134;24.708;2024-01-15T06:22:34;48.30;;;31.58;;
2680;SDS011;1350;42.134;24.708;2024-01-15T06:25:03;47.50;;;27.63;;
2680;SDS011;1350;42.134;24.708;2024-01-15T06:27:30;56.13;;;29.73;;
2680;SDS011;1350;42.134;24.708;2024-01-15T06:29:57;48.85;;;25.27;;
2680;SDS011;1350;42.134;24.708;2024-01-15T06:32:24;50.58;;;28.63;;
2680;SDS011;1350;42.134;24.708;2024-01-15T06:34:52;52.58;;;29.10;;
2680;SDS011;1350;42.134;24.708;2024-01-15T06:37:19;50.83;;;27.35;;
2680;SDS011;1350;42.134;24.708;2024-01-15T06:39:46;52.28;;;32.38;;
2680;SDS011;1350;42.134;24.708;2024-01-15T06:42:14;64.40;;;30.38;;
2680;SDS011;1350;42.134;24.708;2024-01-15T06:44:41;61.88;;;33.70;;
2680;SDS011;1350;42.134;24.708;2024-01-15T06:47:08;62.15;;;31.38;;
2680;SDS011;1350;42.134;24.708;2024-01-15T06:49:36;55.33;;;29.67;;
2680;SDS011;1350;42.134;24.708;2024-01-15T06:52:03;51.47;;;31.55;;
2680;SDS011;1350;42.134;24.708;2024-01-15T06:54:30;55.85;;;36.63;;
2680;SDS011;1350;42.134;24.708;2024-01-15T06:56:57;61.17;;;34.85;;
2680;SDS011;1350;42.134;24.708;2024-01-15T06:59:25;61.85;;;37.35;;
2680;SDS011;1350;42.134;24.708;2024-01-15T07:01:52;65.90;;;38.78;;
2680;SDS011;1350;42.134;24.708;2024-01-15T07:04:20;87.25;;;52.28;;
2680;SDS011;1350;42.134;24.708;2024-01-15T07:06:47;104.68;;;58.30;;
2680;SDS011;1350;42.134;24.708;2024-01-15T07:09:14;92.47;;;52.35;;
2680;SDS011;1350;42.134;24.708;2024-01-15T07:11:44;75.28;;;49.22;;
2680;SDS011;1350;42.134;24.708;2024-01-15T07:14:12;82.57;;;48.38;;
2680;SDS011;1350;42.134;24.708;2024-01-15T07:16:40;75.53;;;42.35;;
2680;SDS011;1350;42.134;24.708;2024-01-15T07:19:07;61.28;;;40.58;;
2680;SDS011;1350;42.134;24.708;2024-01-15T07:21:34;83.13;;;51.05;;
2680;SDS011;1350;42.134;24.708;2024-01-15T07:24:01;85.63;;;53.33;;
2680;SDS011;1350;42.134;24.708;2024-01-15T07:26:29;72.00;;;44.67;;
2680;SDS011;1350;42.134;24.708;2024-01-15T07:28:56;77.75;;;49.25;;
2680;SDS011;1350;42.134;24.708;2024-01-15T07:34:15;84.70;;;51.72;;
2680;SDS011;1350;42.134;24.708;2024-01-15T07:36:43;90.45;;;57.25;;
2680;SDS011;1350;42.134;24.708;2024-01-15T07:39:10;97.32;;;53.80;;
2680;SDS011;1350;42.134;24.708;2024-01-15T07:41:37;92.53;;;57.60;;
2680;SDS011;1350;42.134;24.708;2024-01-15T07:44:04;88.82;;;56.05;;
2680;SDS011;1350;42.134;24.708;2024-01-15T07:46:31;100.28;;;64.03;;
2680;SDS011;1350;42.134;24.708;2024-01-15T07:49:00;92.20;;;60.03;;
2680;SDS011;1350;42.134;24.708;2024-01-15T07:51:27;101.85;;;60.42;;
2680;SDS011;1350;42.134;24.708;2024-01-15T07:53:54;91.72;;;54.17;;
2680;SDS011;1350;42.134;24.708;2024-01-15T07:56:21;75.07;;;50.15;;
2680;SDS011;1350;42.134;24.708;2024-01-15T07:58:48;73.03;;;49.85;;
2680;SDS011;1350;42.134;24.708;2024-01-15T08:01:15;71.90;;;45.30;;
2680;SDS011;1350;42.134;24.708;2024-01-15T08:03:42;75.30;;;40.25;;
2680;SDS011;1350;42.134;24.708;2024-01-15T08:06:10;60.40;;;39.70;;
2680;SDS011;1350;42.134;24.708;2024-01-15T08:08:37;52.25;;;37.03;;
2680;SDS011;1350;42.134;24.708;2024-01-15T08:11:04;82.38;;;39.75;;
2680;SDS011;1350;42.134;24.708;2024-01-15T08:13:31;59.58;;;38.20;;
2680;SDS011;1350;42.134;24.708;2024-01-15T08:15:58;59.83;;;38.33;;
2680;SDS011;1350;42.134;24.708;2024-01-15T08:18:25;55.88;;;33.13;;
2680;SDS011;1350;42.134;24.708;2024-01-15T08:20:52;56.65;;;37.75;;
2680;SDS011;1350;42.134;24.708;2024-01-15T08:23:20;51.88;;;34.20;;
2680;SDS011;1350;42.134;24.708;2024-01-15T08:25:47;46.47;;;31.60;;
2680;SDS011;1350;42.134;24.708;2024-01-15T08:28:16;46.45;;;31.55;;
2680;SDS011;1350;42.134;24.708;2024-01-15T08:30:42;43.88;;;31.83;;
2680;SDS011;1350;42.134;24.708;2024-01-15T08:33:09;42.75;;;27.75;;
2680;SDS011;1350;42.134;24.708;2024-01-15T08:35:36;45.72;;;30.83;;
2680;SDS011;1350;42.134;24.708;2024-01-15T08:38:03;42.75;;;29.95;;
2680;SDS011;1350;42.134;24.708;2024-01-15T08:40:32;41.10;;;29.65;;
2680;SDS011;1350;42.134;24.708;2024-01-15T08:42:59;40.00;;;27.55;;
2680;SDS011;1350;42.134;24.708;2024-01-15T08:45:27;40.65;;;29.80;;
2680;SDS011;1350;42.134;24.708;2024-01-15T08:47:54;45.03;;;29.67;;
2680;SDS011;1350;42.134;24.708;2024-01-15T08:50:21;48.72;;;31.52;;
2680;SDS011;1350;42.134;24.708;2024-01-15T08:52:51;45.88;;;27.85;;
2680;SDS011;1350;42.134;24.708;2024-01-15T08:55:18;42.65;;;26.75;;
2680;SDS011;1350;42.134;24.708;2024-01-15T08:57:49;57.88;;;29.35;;
2680;SDS011;1350;42.134;24.708;2024-01-15T09:00:16;40.72;;;25.80;;
2680;SDS011;1350;42.134;24.708;2024-01-15T09:02:44;40.70;;;27.40;;
2680;SDS011;1350;42.134;24.708;2024-01-15T09:05:11;43.97;;;29.10;;
2680;SDS011;1350;42.134;24.708;2024-01-15T09:07:38;38.55;;;25.55;;
2680;SDS011;1350;42.134;24.708;2024-01-15T09:10:05;39.97;;;26.80;;
2680;SDS011;1350;42.134;24.708;2024-01-15T09:12:35;42.10;;;27.58;;
2680;SDS011;1350;42.134;24.708;2024-01-15T09:15:03;39.35;;;25.65;;
2680;SDS011;1350;42.134;24.708;2024-01-15T09:17:31;44.65;;;25.73;;
2680;SDS011;1350;42.134;24.708;2024-01-15T09:19:58;38.88;;;25.77;;
2680;SDS011;1350;42.134;24.708;2024-01-15T09:22:25;43.15;;;24.80;;
2680;SDS011;1350;42.134;24.708;2024-01-15T09:24:52;50.03;;;29.80;;
2680;SDS011;1350;42.134;24.708;2024-01-15T09:27:19;41.13;;;26.98;;
2680;SDS011;1350;42.134;24.708;2024-01-15T09:29:46;38.08;;;25.20;;
2680;SDS011;1350;42.134;24.708;2024-01-15T09:32:14;50.53;;;27.52;;
2680;SDS011;1350;42.134;24.708;2024-01-15T09:34:42;43.53;;;28.13;;
2680;SDS011;1350;42.134;24.708;2024-01-15T09:37:09;48.10;;;29.88;;
2680;SDS011;1350;42.134;24.708;2024-01-15T09:39:36;43.45;;;27.60;;
2680;SDS011;1350;42.134;24.708;2024-01-15T09:42:03;41.15;;;27.48;;
2680;SDS011;1350;42.134;24.708;2024-01-15T09:44:31;48.47;;;30.98;;
2680;SDS011;1350;42.134;24.708;2024-01-15T09:46:58;46.90;;;29.20;;
2680;SDS011;1350;42.134;24.708;2024-01-15T09:49:27;46.35;;;26.20;;
2680;SDS011;1350;42.134;24.708;2024-01-15T09:51:55;49.83;;;28.52;;
2680;SDS011;1350;42.134;24.708;2024-01-15T09:54:23;48.95;;;29.10;;
2680;SDS011;1350;42.134;24.708;2024-01-15T09:56:50;54.33;;;29.70;;
2680;SDS011;1350;42.134;24.708;2024-01-15T09:59:17;47.15;;;29.20;;
2680;SDS011;1350;42.134;24.708;2024-01-15T10:01:45;63.42;;;31.23;;
2680;SDS011;1350;42.134;24.708;2024-01-15T10:04:13;51.72;;;32.05;;
2680;SDS011;1350;42.134;24.708;2024-01-15T10:06:43;48.33;;;28.08;;
2680;SDS011;1350;42.134;24.708;2024-01-15T10:09:13;63.63;;;34.95;;
2680;SDS011;1350;42.134;24.708;2024-01-15T10:11:42;50.22;;;31.00;;
2680;SDS011;1350;42.134;24.708;2024-01-15T10:14:09;50.80;;;34.50;;
2680;SDS011;1350;42.134;24.708;2024-01-15T10:16:37;43.83;;;31.38;;
2680;SDS011;1350;42.134;24.708;2024-01-15T10:19:04;49.25;;;33.60;;
2680;SDS011;1350;42.134;24.708;2024-01-15T10:21:32;53.00;;;34.05;;
2680;SDS011;1350;42.134;24.708;2024-01-15T10:24:01;96.20;;;36.88;;
2680;SDS011;1350;42.134;24.708;2024-01-15T10:26:29;52.35;;;32.92;;
2680;SDS011;1350;42.134;24.708;2024-01-15T10:28:58;51.40;;;32.92;;
2680;SDS011;1350;42.134;24.708;2024-01-15T10:31:25;52.85;;;31.55;;
2680;SDS011;1350;42.134;24.708;2024-01-15T10:33:53;54.28;;;36.13;;
2680;SDS011;1350;42.134;24.708;2024-01-15T10:36:19;51.10;;;35.22;;
2680;SDS011;1350;42.134;24.708;2024-01-15T10:38:47;46.70;;;32.75;;
2680;SDS011;1350;42.134;24.708;2024-01-15T10:41:16;49.88;;;35.85;;
2680;SDS011;1350;42.134;24.708;2024-01-15T10:43:43;53.40;;;35.70;;
2680;SDS011;1350;42.134;24.708;2024-01-15T10:46:10;52.55;;;32.97;;
2680;SDS011;1350;42.134;24.708;2024-01-15T10:48:38;67.35;;;42.92;;
2680;SDS011;1350;42.134;24.708;2024-01-15T10:51:06;54.47;;;38.25;;
2680;SDS011;1350;42.134;24.708;2024-01-15T10:53:36;54.58;;;34.00;;
2680;SDS011;1350;42.134;24.708;2024-01-15T10:56:05;44.60;;;30.13;;
2680;SDS011;1350;42.134;24.708;2024-01-15T10:58:34;40.33;;;28.55;;
2680;SDS011;1350;42.134;24.708;2024-01-15T11:01:03;38.78;;;26.85;;
2680;SDS011;1350;42.134;24.708;2024-01-15T11:03:31;36.97;;;28.77;;
2680;SDS011;1350;42.134;24.708;2024-01-15T11:05:58;41.90;;;30.27;;
2680;SDS011;1350;42.134;24.708;2024-01-15T11:08:28;46.33;;;31.20;;
2680;SDS011;1350;42.134;24.708;2024-01-15T11:10:56;48.92;;;33.50;;
2680;SDS011;1350;42.134;24.708;2024-01-15T11:13:39;42.65;;;29.50;;
2680;SDS011;1350;42.134;24.708;2024-01-15T11:16:10;42.33;;;32.40;;
2680;SDS011;1350;42.134;24.708;2024-01-15T11:18:39;42.92;;;29.92;;
2680;SDS011;1350;42.134;24.708;2024-01-15T11:21:19;42.80;;;31.70;;
2680;SDS011;1350;42.134;24.708;2024-01-15T11:23:51;42.63;;;30.92;;
2680;SDS011;1350;42.134;24.708;2024-01-15T11:26:29;45.20;;;30.52;;
2680;SDS011;1350;42.134;24.708;2024-01-15T11:28:59;44.53;;;33.78;;
2680;SDS011;1350;42.134;24.708;2024-01-15T11:31:29;43.50;;;34.05;;
2680;SDS011;1350;42.134;24.708;2024-01-15T11:33:56;46.08;;;32.25;;
2680;SDS011;1350;42.134;24.708;2024-01-15T11:39:39;41.35;;;29.10;;
2680;SDS011;1350;42.134;24.708;2024-01-15T11:42:07;37.40;;;28.70;;
2680;SDS011;1350;42.134;24.708;2024-01-15T11:44:37;40.97;;;30.60;;
2680;SDS011;1350;42.134;24.708;2024-01-15T11:47:05;42.47;;;30.70;;
2680;SDS011;1350;42.134;24.708;2024-01-15T11:49:44;43.88;;;31.83;;
2680;SDS011;1350;42.134;24.708;2024-01-15T11:52:25;45.20;;;32.13;;
2680;SDS011;1350;42.134;24.708;2024-01-15T11:54:55;40.88;;;31.60;;
2680;SDS011;1350;42.134;24.708;2024-01-15T11:57:30;37.45;;;29.73;;
2680;SDS011;1350;42.134;24.708;2024-01-15T12:00:07;37.63;;;26.67;;
2680;SDS011;1350;42.134;24.708;2024-01-15T12:02:35;42.65;;;30.33;;
2680;SDS011;1350;42.134;24.708;2024-01-15T12:05:03;53.33;;;31.80;;
2680;SDS011;1350;42.134;24.708;2024-01-15T12:07:30;40.20;;;29.35;;
2680;SDS011;1350;42.134;24.708;2024-01-15T12:09:57;41.55;;;30.73;;
2680;SDS011;1350;42.134;24.708;2024-01-15T12:12:24;43.53;;;29.38;;
2680;SDS011;1350;42.134;24.708;2024-01-15T12:14:58;46.20;;;30.38;;
2680;SDS011;1350;42.134;24.708;2024-01-15T12:17:26;49.22;;;30.90;;
2680;SDS011;1350;42.134;24.708;2024-01-15T12:19:53;40.83;;;29.48;;
2680;SDS011;1350;42.134;24.708;2024-01-15T12:22:21;46.35;;;29.70;;
2680;SDS011;1350;42.134;24.708;2024-01-15T12:24:48;36.55;;;25.40;;
2680;SDS011;1350;42.134;24.708;2024-01-15T12:27:15;39.72;;;27.73;;
2680;SDS011;1350;42.134;24.708;2024-01-15T12:29:42;43.10;;;26.83;;
2680;SDS011;1350;42.134;24.708;2024-01-15T12:32:11;45.00;;;28.75;;
2680;SDS011;1350;42.134;24.708;2024-01-15T12:34:40;50.42;;;29.98;;
2680;SDS011;1350;42.134;24.708;2024-01-15T12:37:07;51.70;;;30.23;;
2680;SDS011;1350;42.134;24.708;2024-01-15T12:39:34;53.20;;;30.30;;
2680;SDS011;1350;42.134;24.708;2024-01-15T12:42:01;54.33;;;33.38;;
2680;SDS011;1350;42.134;24.708;2024-01-15T12:44:28;51.53;;;32.55;;
2680;SDS011;1350;42.134;24.708;2024-01-15T12:46:56;53.08;;;31.30;;
2680;SDS011;1350;42.134;24.708;2024-01-15T12:49:23;47.25;;;31.55;;
2680;SDS011;1350;42.134;24.708;2024-01-15T12:51:56;51.88;;;34.00;;
2680;SDS011;1350;42.134;24.708;2024-01-15T12:54:23;60.35;;;34.08;;
2680;SDS011;1350;42.134;24.708;2024-01-15T12:56:51;48.42;;;32.97;;
2680;SDS011;1350;42.134;24.708;2024-01-15T12:59:18;49.00;;;33.17;;
2680;SDS011;1350;42.134;24.708;2024-01-15T13:01:45;58.78;;;33.38;;
2680;SDS011;1350;42.134;24.708;2024-01-15T13:04:20;61.35;;;36.70;;
2680;SDS011;1350;42.134;24.708;2024-01-15T13:06:48;58.42;;;38.33;;
2680;SDS011;1350;42.134;24.708;2024-01-15T13:09:17;65.82;;;36.30;;
2680;SDS011;1350;42.134;24.708;2024-01-15T13:11:44;52.40;;;31.33;;
2680;SDS011;1350;42.134;24.708;2024-01-15T13:14:11;51.50;;;32.08;;
2680;SDS011;1350;42.134;24.708;2024-01-15T13:16:39;56.97;;;33.42;;
2680;SDS011;1350;42.134;24.708;2024-01-15T13:19:07;48.78;;;33.33;;
2680;SDS011;1350;42.134;24.708;2024-01-15T13:21:36;44.20;;;30.15;;
2680;SDS011;1350;42.134;24.708;2024-01-15T13:24:03;72.35;;;35.75;;
2680;SDS011;1350;42.134;24.708;2024-01-15T13:26:32;65.25;;;35.80;;
2680;SDS011;1350;42.134;24.708;2024-01-15T13:28:59;48.50;;;32.22;;
2680;SDS011;1350;42.134;24.708;2024-01-15T13:31:26;74.47;;;36.95;;
2680;SDS011;1350;42.134;24.708;2024-01-15T13:33:53;58.40;;;32.67;;
2680;SDS011;1350;42.134;24.708;2024-01-15T13:36:21;60.45;;;33.53;;
2680;SDS011;1350;42.134;24.708;2024-01-15T13:38:48;47.92;;;33.72;;
2680;SDS011;1350;42.134;24.708;2024-01-15T13:41:15;79.47;;;36.17;;
2680;SDS011;1350;42.134;24.708;2024-01-15T13:43:45;52.88;;;35.10;;
2680;SDS011;1350;42.134;24.708;2024-01-15T13:46:12;67.50;;;38.88;;
2680;SDS011;1350;42.134;24.708;2024-01-15T13:48:39;57.40;;;33.88;;
2680;SDS011;1350;42.134;24.708;2024-01-15T13:51:06;54.75;;;34.08;;
2680;SDS011;1350;42.134;24.708;2024-01-15T13:53:33;50.95;;;33.47;;
2680;SDS011;1350;42.134;24.708;2024-01-15T13:56:00;54.88;;;35.28;;
2680;SDS011;1350;42.134;24.708;2024-01-15T13:58:27;58.50;;;35.42;;
2680;SDS011;1350;42.134;24.708;2024-01-15T14:00:56;56.95;;;33.92;;
2680;SDS011;1350;42.134;24.708;2024-01-15T14:03:23;58.70;;;36.05;;
2680;SDS011;1350;42.134;24.708;2024-01-15T14:05:50;61.33;;;42.85;;
2680;SDS011;1350;42.134;24.708;2024-01-15T14:08:17;60.85;;;42.72;;
2680;SDS011;1350;42.134;24.708;2024-01-15T14:10:44;60.88;;;40.30;;
2680;SDS011;1350;42.134;24.708;2024-01-15T14:13:11;69.65;;;43.65;;
2680;SDS011;1350;42.134;24.708;2024-01-15T14:15:38;70.85;;;46.17;;
2680;SDS011;1350;42.134;24.708;2024-01-15T14:18:07;70.47;;;47.47;;
2680;SDS011;1350;42.134;24.708;2024-01-15T14:20:34;91.93;;;56.53;;
2680;SDS011;1350;42.134;24.708;2024-01-15T14:23:01;69.18;;;43.65;;
2680;SDS011;1350;42.134;24.708;2024-01-15T14:25:27;84.28;;;52.25;;
2680;SDS011;1350;42.134;24.708;2024-01-15T14:27:55;75.63;;;50.28;;
2680;SDS011;1350;42.134;24.708;2024-01-15T14:30:22;70.03;;;42.05;;
2680;SDS011;1350;42.134;24.708;2024-01-15T14:32:48;63.67;;;41.53;;
2680;SDS011;1350;42.134;24.708;2024-01-15T14:35:17;84.20;;;43.45;;
2680;SDS011;1350;42.134;24.708;2024-01-15T14:37:44;70.60;;;43.33;;
2680;SDS011;1350;42.134;24.708;2024-01-15T14:40:11;77.57;;;42.80;;
2680;SDS011;1350;42.134;24.708;2024-01-15T14:42:40;66.68;;;41.30;;